Morristown, South Dakota
Current Conditions -  °F | °C
As of 7:10 AM on Thursday 30 Oct 2014 (Local Time) from KHEI Reporting Station
Haze Haze  
Wind Chill: 23°   Ceiling: 300
Heat Index: 33°   Visibility: 2mi
Dew Point: 32°   Wind: 15mph
Humidity: 96%   Direction: 330°NNW
Pressure: 30.25"   Gusts: 23mph
Location:  45.94°N, 101.72°W
Report Text: KHEI 301310Z AUTO 33013G20KT 2SM BR OVC003 01/00 A3025 RMK AO2 T00060000
Loading
Personal Weather Stations






























Interactive Weather Map
Tropical Storm Tracking
New forecast layout! Learn more

10-Day Weather Forecast

Advertisements
Track Severe Weather on mobile